Time;durP1;ratioP1;P1;durP2;ratioP2;P2;SDS_P1;SDS_P2;PMS_P1;PMS_P2;Temp;Humidity;BMP_temperature;BMP_pressure;BME280_temperature;BME280_humidity;BME280_pressure;Samples;Min_cycle;Max_cycle;Signal;HPM_P1;HPM_P2
2021/04/08 00:00:30;;;;;;;11.75;0.95;;;2.50;84.40;;;;;;3553280;40;20041;-81
2021/04/08 00:02:56;;;;;;;13.02;0.57;;;2.60;84.40;;;;;;3544577;40;20124;-77
2021/04/08 00:05:22;;;;;;;3.97;0.40;;;2.50;84.40;;;;;;3546001;40;20042;-78
2021/04/08 00:07:48;;;;;;;8.73;0.60;;;2.50;84.40;;;;;;3547061;40;20050;-80
2021/04/08 00:10:15;;;;;;;5.53;0.63;;;2.50;84.60;;;;;;3546995;40;20097;-83
2021/04/08 00:12:41;;;;;;;10.70;0.60;;;2.50;83.90;;;;;;3546645;40;20080;-77
2021/04/08 00:15:09;;;;;;;9.30;1.02;;;2.50;84.20;;;;;;3546884;40;20137;-82
2021/04/08 00:17:35;;;;;;;6.22;1.80;;;2.40;84.40;;;;;;3546423;40;20338;-76
2021/04/08 00:20:05;;;;;;;9.35;0.35;;;2.40;86.30;;;;;;3547050;40;20043;-77
2021/04/08 00:22:31;;;;;;;5.00;0.60;;;2.40;87.90;;;;;;3546502;40;20332;-77
2021/04/08 00:24:57;;;;;;;11.75;1.92;;;2.40;87.70;;;;;;3546793;40;20081;-79
2021/04/08 00:27:23;;;;;;;5.65;1.42;;;2.30;88.50;;;;;;3545432;40;20329;-81
2021/04/08 00:29:49;;;;;;;4.28;0.60;;;2.30;87.20;;;;;;3548709;40;20332;-77
2021/04/08 00:32:15;;;;;;;9.02;1.20;;;2.30;87.50;;;;;;3547072;40;20048;-77
2021/04/08 00:34:40;;;;;;;3.08;0.30;;;2.40;86.10;;;;;;3545650;40;20034;-77
2021/04/08 00:37:06;;;;;;;4.88;0.85;;;2.40;86.20;;;;;;3546397;40;20105;-77
2021/04/08 00:39:32;;;;;;;3.53;0.52;;;2.40;86.00;;;;;;3546392;40;20676;-81
2021/04/08 00:41:58;;;;;;;3.20;0.35;;;2.40;86.30;;;;;;3546245;40;20049;-81
2021/04/08 00:44:24;;;;;;;3.33;0.45;;;2.40;85.20;;;;;;3546724;40;20148;-77
2021/04/08 00:46:50;;;;;;;6.38;0.30;;;2.50;84.80;;;;;;3546375;40;20350;-81
2021/04/08 00:49:16;;;;;;;4.93;0.40;;;2.50;84.90;;;;;;3546870;40;20054;-77
2021/04/08 00:51:42;;;;;;;5.25;0.25;;;2.50;85.00;;;;;;3546393;40;20352;-81
2021/04/08 00:54:08;;;;;;;7.55;0.60;;;2.50;84.70;;;;;;3537701;40;20458;-77
2021/04/08 00:56:33;;;;;;;6.60;0.50;;;2.40;85.40;;;;;;3545511;40;20042;-81
2021/04/08 00:59:01;;;;;;;3.75;0.40;;;2.50;85.10;;;;;;3546643;40;20050;-80
2021/04/08 01:01:27;;;;;;;6.35;1.15;;;2.50;84.70;;;;;;3545430;40;20042;-77
2021/04/08 01:03:53;;;;;;;8.27;0.75;;;2.50;84.60;;;;;;3545784;40;20041;-77
2021/04/08 01:06:19;;;;;;;6.57;0.20;;;2.50;85.10;;;;;;3545433;40;20061;-80
2021/04/08 01:08:45;;;;;;;4.88;1.17;;;2.50;85.50;;;;;;3546331;40;20422;-78
2021/04/08 01:11:10;;;;;;;5.25;0.77;;;2.50;85.40;;;;;;3546167;40;20094;-78
2021/04/08 01:13:38;;;;;;;7.68;0.52;;;2.50;85.50;;;;;;3546155;40;20049;-77
2021/04/08 01:16:08;;;;;;;5.85;0.73;;;2.50;85.20;;;;;;3546540;40;20080;-76
2021/04/08 01:18:46;;;;;;;8.55;1.52;;;2.40;86.20;;;;;;3546338;40;20038;-81
2021/04/08 01:21:30;;;;;;;6.05;0.50;;;2.40;85.20;;;;;;3546507;40;20042;-77
2021/04/08 01:24:20;;;;;;;9.15;0.93;;;2.30;85.00;;;;;;3546529;40;20101;-79
2021/04/08 01:27:13;;;;;;;8.50;0.98;;;2.20;85.40;;;;;;3546401;40;20046;-77
2021/04/08 01:30:26;;;;;;;9.68;1.73;;;2.10;85.00;;;;;;3548774;40;20230;-77
2021/04/08 01:32:55;;;;;;;9.52;0.88;;;2.00;85.40;;;;;;3547544;40;20050;-79
2021/04/08 01:35:26;;;;;;;8.05;1.15;;;2.00;85.80;;;;;;3545391;40;20337;-76
2021/04/08 01:38:15;;;;;;;10.90;0.60;;;1.90;85.90;;;;;;3546563;40;20125;-76
2021/04/08 01:40:41;;;;;;;5.05;0.57;;;1.90;86.30;;;;;;3545959;40;20041;-77
2021/04/08 01:43:08;;;;;;;6.85;0.75;;;1.90;87.30;;;;;;3545700;40;20265;-76
2021/04/08 01:45:35;;;;;;;12.27;0.68;;;1.90;87.00;;;;;;3544883;40;20042;-77
2021/04/08 01:48:04;;;;;;;12.82;2.30;;;1.90;86.80;;;;;;3537182;40;20061;-77
2021/04/08 01:50:30;;;;;;;5.53;0.50;;;2.00;87.70;;;;;;3546018;40;20069;-76
2021/04/08 01:52:58;;;;;;;9.35;0.95;;;2.00;88.00;;;;;;3546420;40;20059;-77
2021/04/08 01:55:26;;;;;;;6.72;0.60;;;2.10;89.40;;;;;;3546043;40;20042;-76
2021/04/08 01:57:55;;;;;;;8.00;2.10;;;2.00;88.00;;;;;;3546200;40;20042;-76
2021/04/08 02:00:21;;;;;;;12.27;1.33;;;2.00;87.90;;;;;;3545971;40;20123;-75
2021/04/08 02:02:50;;;;;;;10.02;1.40;;;2.00;87.50;;;;;;3546236;40;20045;-74
2021/04/08 02:05:17;;;;;;;10.65;1.48;;;2.00;87.90;;;;;;3545342;40;20070;-74
2021/04/08 02:07:52;;;;;;;8.68;0.82;;;2.00;87.20;;;;;;3544874;40;20049;-75
2021/04/08 02:10:19;;;;;;;13.32;1.60;;;1.90;87.10;;;;;;3545985;40;20062;-74
2021/04/08 02:12:47;;;;;;;9.38;0.85;;;1.90;88.10;;;;;;3545945;40;20049;-73
2021/04/08 02:15:15;;;;;;;6.50;0.50;;;1.90;89.60;;;;;;3546096;40;20034;-75
2021/04/08 02:17:43;;;;;;;7.80;0.40;;;1.90;89.40;;;;;;3545867;40;20042;-74
2021/04/08 02:20:18;;;;;;;6.75;0.98;;;1.90;90.00;;;;;;3546242;40;20058;-74
2021/04/08 02:22:50;;;;;;;7.70;0.50;;;1.80;88.40;;;;;;3545973;40;20082;-75
2021/04/08 02:25:17;;;;;;;6.80;0.57;;;1.80;87.80;;;;;;3545982;40;20042;-75
2021/04/08 02:27:44;;;;;;;9.07;0.55;;;1.80;88.30;;;;;;3545702;40;20334;-74
2021/04/08 02:30:15;;;;;;;8.23;1.23;;;1.80;88.90;;;;;;3547750;40;20104;-75
2021/04/08 02:32:42;;;;;;;3.58;0.30;;;1.70;88.20;;;;;;3544615;40;20255;-74
2021/04/08 02:35:13;;;;;;;4.72;0.57;;;1.70;88.40;;;;;;3545682;40;20057;-74
2021/04/08 02:37:39;;;;;;;6.68;0.30;;;1.70;88.40;;;;;;3545380;40;20433;-74
2021/04/08 02:40:07;;;;;;;4.43;0.30;;;1.60;88.50;;;;;;3545532;40;20071;-74
2021/04/08 02:42:34;;;;;;;4.70;0.90;;;1.60;88.00;;;;;;3544499;40;20041;-74
2021/04/08 02:45:00;;;;;;;6.85;1.25;;;1.60;88.40;;;;;;3545890;40;20066;-74
2021/04/08 02:47:26;;;;;;;8.77;0.50;;;1.50;90.10;;;;;;3545011;40;20084;-74
2021/04/08 02:49:52;;;;;;;5.70;0.80;;;1.50;89.30;;;;;;3545768;40;20665;-74
2021/04/08 02:52:20;;;;;;;6.95;0.90;;;1.40;89.50;;;;;;3545689;40;20046;-75
2021/04/08 02:54:55;;;;;;;5.95;0.93;;;1.40;89.60;;;;;;3545749;40;20038;-74
2021/04/08 02:57:37;;;;;;;4.20;0.93;;;1.50;88.40;;;;;;3545319;40;20076;-74
2021/04/08 03:00:07;;;;;;;6.75;0.20;;;1.40;88.80;;;;;;3545445;40;20054;-75
2021/04/08 03:02:38;;;;;;;4.93;0.20;;;1.50;89.30;;;;;;3547194;40;20042;-75
2021/04/08 03:05:08;;;;;;;4.38;0.38;;;1.40;89.00;;;;;;3547445;40;20500;-75
2021/04/08 03:07:38;;;;;;;8.13;0.22;;;1.40;88.80;;;;;;3547357;40;20807;-75
2021/04/08 03:10:06;;;;;;;4.40;1.25;;;1.40;89.60;;;;;;3547501;40;20670;-74
2021/04/08 03:12:35;;;;;;;6.07;0.70;;;1.40;90.20;;;;;;3546756;40;20042;-74
2021/04/08 03:15:03;;;;;;;5.82;0.32;;;1.40;90.20;;;;;;3547344;40;20042;-75
2021/04/08 03:17:35;;;;;;;9.75;1.85;;;1.40;90.30;;;;;;3545885;40;20054;-75
2021/04/08 03:20:07;;;;;;;4.68;0.20;;;1.50;90.40;;;;;;3547417;40;20049;-75
2021/04/08 03:22:35;;;;;;;8.02;0.30;;;1.50;90.20;;;;;;3546961;40;20046;-78
2021/04/08 03:25:02;;;;;;;4.47;0.30;;;1.60;90.10;;;;;;3547161;40;20038;-76
2021/04/08 03:27:29;;;;;;;6.63;1.17;;;1.60;90.10;;;;;;3545738;40;20073;-76
2021/04/08 03:29:56;;;;;;;5.97;0.47;;;1.60;89.90;;;;;;3551391;40;20131;-74
2021/04/08 03:32:22;;;;;;;4.55;0.57;;;1.60;90.00;;;;;;3555807;40;20053;-74
2021/04/08 03:34:49;;;;;;;10.63;1.17;;;1.70;90.00;;;;;;3554579;40;20344;-75
2021/04/08 03:37:17;;;;;;;8.65;0.30;;;1.70;90.20;;;;;;3547122;40;20046;-74
2021/04/08 03:39:43;;;;;;;2.40;0.25;;;1.70;89.90;;;;;;3545782;40;20067;-76
2021/04/08 03:42:16;;;;;;;6.38;0.63;;;1.70;90.10;;;;;;3546844;40;20057;-75
2021/04/08 03:44:42;;;;;;;6.50;0.40;;;1.70;90.10;;;;;;3545970;40;20377;-79
2021/04/08 03:47:09;;;;;;;4.45;0.73;;;1.70;90.00;;;;;;3546798;40;20058;-75
2021/04/08 03:49:35;;;;;;;10.32;0.95;;;1.70;89.50;;;;;;3546538;40;20050;-75
2021/04/08 03:52:07;;;;;;;10.40;0.47;;;1.70;90.10;;;;;;3545916;40;20050;-75
2021/04/08 03:54:35;;;;;;;9.63;0.30;;;1.70;90.00;;;;;;3545797;40;20380;-77
2021/04/08 03:57:02;;;;;;;5.55;0.20;;;1.70;89.70;;;;;;3546920;40;20046;-74
2021/04/08 03:59:29;;;;;;;9.82;1.48;;;1.70;90.00;;;;;;3546490;40;20440;-75
2021/04/08 04:01:56;;;;;;;5.95;0.50;;;1.70;90.30;;;;;;3547028;40;20042;-75
2021/04/08 04:04:24;;;;;;;2.22;0.70;;;1.70;89.70;;;;;;3546515;40;20057;-75
2021/04/08 04:06:52;;;;;;;4.00;0.30;;;1.70;90.00;;;;;;3546992;40;20046;-78
2021/04/08 04:09:19;;;;;;;7.38;0.70;;;1.70;90.20;;;;;;3547067;40;20046;-83
2021/04/08 04:11:50;;;;;;;4.80;0.75;;;1.70;89.70;;;;;;3546348;40;20042;-81
2021/04/08 04:14:21;;;;;;;5.53;0.52;;;1.60;89.50;;;;;;3547063;40;20056;-79
2021/04/08 04:16:49;;;;;;;8.18;0.60;;;1.60;89.50;;;;;;3547400;40;20051;-83
2021/04/08 04:19:15;;;;;;;4.20;0.40;;;1.60;89.90;;;;;;3546174;40;20034;-76
2021/04/08 04:21:40;;;;;;;5.85;1.05;;;1.50;90.60;;;;;;3537737;40;20049;-75
2021/04/08 04:24:07;;;;;;;4.90;0.57;;;1.50;90.00;;;;;;3547208;40;20046;-76
2021/04/08 04:26:33;;;;;;;3.40;0.60;;;1.50;90.00;;;;;;3546475;40;20038;-75
2021/04/08 04:28:59;;;;;;;9.57;1.10;;;1.50;89.90;;;;;;3545821;40;20364;-75
2021/04/08 04:31:25;;;;;;;2.97;0.22;;;1.60;90.00;;;;;;3555526;40;20045;-76
2021/04/08 04:33:51;;;;;;;6.60;0.75;;;1.50;90.20;;;;;;3550895;40;20365;-75
2021/04/08 04:36:18;;;;;;;4.78;1.15;;;1.60;90.70;;;;;;3546701;40;20048;-75
2021/04/08 04:38:45;;;;;;;9.60;0.90;;;1.60;90.80;;;;;;3545615;40;20049;-80
2021/04/08 04:41:11;;;;;;;6.72;1.15;;;1.60;90.40;;;;;;3546736;40;20335;-75
2021/04/08 04:43:37;;;;;;;2.15;0.20;;;1.60;90.10;;;;;;3546349;40;20148;-74
2021/04/08 04:46:04;;;;;;;3.95;0.20;;;1.60;89.80;;;;;;3545665;40;20052;-74
2021/04/08 04:48:30;;;;;;;5.28;0.28;;;1.50;89.30;;;;;;3545959;40;20060;-74
2021/04/08 04:50:56;;;;;;;6.13;0.40;;;1.50;89.20;;;;;;3546689;40;20136;-74
2021/04/08 04:53:22;;;;;;;8.30;1.30;;;1.50;89.40;;;;;;3546116;40;20078;-76
2021/04/08 04:55:48;;;;;;;20.35;2.55;;;1.40;89.40;;;;;;3546565;40;20052;-75
2021/04/08 04:58:14;;;;;;;7.10;0.57;;;1.40;89.50;;;;;;3537455;40;20049;-74
2021/04/08 05:00:40;;;;;;;4.85;0.52;;;1.30;90.20;;;;;;3545295;40;20057;-74
2021/04/08 05:03:06;;;;;;;8.15;0.45;;;1.30;89.80;;;;;;3546535;40;20054;-74
2021/04/08 05:05:32;;;;;;;8.02;0.52;;;1.30;90.30;;;;;;3545476;40;20085;-74
2021/04/08 05:07:58;;;;;;;11.55;1.10;;;1.30;90.00;;;;;;3544128;40;20054;-74
2021/04/08 05:10:24;;;;;;;9.48;0.50;;;1.30;90.20;;;;;;3546147;40;20042;-74
2021/04/08 05:12:50;;;;;;;12.45;1.40;;;1.30;90.30;;;;;;3546529;40;20358;-80
2021/04/08 05:15:16;;;;;;;9.90;0.47;;;1.40;90.80;;;;;;3537267;40;20046;-74
2021/04/08 05:17:42;;;;;;;8.15;0.52;;;1.50;91.20;;;;;;3545810;40;20038;-75
2021/04/08 05:20:08;;;;;;;6.72;0.35;;;1.50;91.40;;;;;;3546412;40;20061;-75
2021/04/08 05:22:34;;;;;;;6.30;1.10;;;1.60;91.30;;;;;;3545398;40;20070;-75
2021/04/08 05:25:00;;;;;;;5.82;0.60;;;1.60;91.10;;;;;;3546272;40;20141;-75
2021/04/08 05:27:25;;;;;;;10.63;2.25;;;1.60;91.00;;;;;;3545891;40;20050;-75
2021/04/08 05:29:51;;;;;;;8.38;0.85;;;1.80;91.00;;;;;;3541142;40;20038;-75
2021/04/08 05:32:17;;;;;;;4.55;0.20;;;1.70;90.70;;;;;;3545530;40;20094;-75
2021/04/08 05:34:43;;;;;;;4.00;0.38;;;1.70;90.70;;;;;;3545976;40;20109;-74
2021/04/08 05:37:09;;;;;;;5.18;0.20;;;1.70;90.70;;;;;;3546328;40;20706;-75
2021/04/08 05:39:35;;;;;;;4.45;0.85;;;1.70;90.80;;;;;;3544742;40;20053;-77
2021/04/08 05:42:01;;;;;;;3.08;0.45;;;1.70;90.60;;;;;;3546044;40;20046;-74
2021/04/08 05:44:27;;;;;;;3.28;0.63;;;1.70;91.10;;;;;;3545642;40;20143;-75
2021/04/08 05:46:53;;;;;;;5.60;1.52;;;1.70;91.10;;;;;;3545852;40;20176;-75
2021/04/08 05:49:21;;;;;;;1.67;0.40;;;1.60;91.30;;;;;;3545747;40;20046;-75
2021/04/08 05:51:47;;;;;;;6.93;0.68;;;1.60;90.80;;;;;;3545856;40;20050;-76
2021/04/08 05:54:13;;;;;;;3.15;0.82;;;1.60;90.80;;;;;;3545890;40;20045;-74
2021/04/08 05:56:38;;;;;;;2.85;1.05;;;1.60;90.60;;;;;;3544785;40;20276;-75
2021/04/08 05:59:04;;;;;;;6.07;0.40;;;1.70;90.70;;;;;;3544868;40;20046;-75
2021/04/08 06:01:30;;;;;;;3.25;0.40;;;1.70;91.10;;;;;;3545720;40;20038;-75
2021/04/08 06:03:56;;;;;;;2.33;0.88;;;1.80;91.40;;;;;;3545926;40;20038;-74
2021/04/08 06:06:22;;;;;;;4.55;0.85;;;2.00;91.10;;;;;;3544772;40;20127;-77
2021/04/08 06:08:47;;;;;;;4.63;0.95;;;2.10;91.40;;;;;;3544728;40;20095;-74
2021/04/08 06:11:14;;;;;;;2.75;0.50;;;2.40;91.20;;;;;;3545877;40;20049;-76
2021/04/08 06:13:40;;;;;;;2.38;0.47;;;2.60;91.10;;;;;;3536450;40;20050;-79
2021/04/08 06:16:06;;;;;;;2.40;1.15;;;2.60;90.90;;;;;;3545031;40;20128;-74
2021/04/08 06:18:32;;;;;;;5.10;1.35;;;2.70;91.00;;;;;;3544360;40;20057;-75
2021/04/08 06:20:58;;;;;;;5.40;0.40;;;2.70;90.90;;;;;;3545528;40;20042;-77
2021/04/08 06:23:24;;;;;;;6.40;0.30;;;2.80;90.80;;;;;;3545515;40;20249;-75
2021/04/08 06:25:49;;;;;;;1.17;0.40;;;2.80;90.80;;;;;;3545050;40;20042;-76
2021/04/08 06:28:15;;;;;;;2.75;0.55;;;2.90;90.80;;;;;;3544785;40;20045;-76
2021/04/08 06:30:44;;;;;;;4.50;0.65;;;3.00;90.80;;;;;;3545854;40;20042;-78
2021/04/08 06:33:10;;;;;;;3.75;1.40;;;3.00;90.70;;;;;;3544938;40;20132;-77
2021/04/08 06:35:37;;;;;;;3.92;0.20;;;3.10;90.50;;;;;;3546245;40;20054;-76
2021/04/08 06:38:03;;;;;;;1.83;0.40;;;3.20;90.30;;;;;;3546343;40;20035;-76
2021/04/08 06:40:29;;;;;;;5.07;0.20;;;3.20;90.30;;;;;;3547118;40;20124;-77
2021/04/08 06:42:55;;;;;;;2.25;0.38;;;3.30;90.40;;;;;;3547540;40;20053;-77
2021/04/08 06:45:27;;;;;;;6.78;0.73;;;3.40;90.40;;;;;;3546908;40;20042;-78
2021/04/08 06:47:56;;;;;;;3.20;0.70;;;3.50;90.30;;;;;;3547358;40;20318;-76
2021/04/08 06:50:26;;;;;;;5.72;0.28;;;3.60;90.10;;;;;;3546023;40;20048;-77
2021/04/08 06:52:53;;;;;;;3.85;0.20;;;3.60;90.10;;;;;;3547311;40;20046;-76
2021/04/08 06:55:20;;;;;;;7.40;0.75;;;3.60;90.00;;;;;;3547139;40;20035;-76
2021/04/08 06:57:47;;;;;;;4.28;0.40;;;3.60;90.10;;;;;;3544858;40;20333;-76
2021/04/08 07:00:16;;;;;;;5.18;0.85;;;3.60;90.60;;;;;;3546428;40;20126;-75
2021/04/08 07:02:43;;;;;;;3.38;0.95;;;3.60;90.00;;;;;;3546067;40;20038;-76
2021/04/08 07:05:10;;;;;;;1.63;0.35;;;3.70;90.10;;;;;;3547196;40;20365;-76
2021/04/08 07:07:36;;;;;;;2.33;0.30;;;3.70;89.90;;;;;;3537516;40;20068;-76
2021/04/08 07:10:02;;;;;;;3.22;0.50;;;3.70;90.10;;;;;;3546110;40;20399;-77
2021/04/08 07:12:28;;;;;;;3.20;0.28;;;3.70;90.00;;;;;;3545715;40;20106;-77
2021/04/08 07:14:55;;;;;;;4.88;0.70;;;3.70;90.20;;;;;;3547147;40;20071;-77
2021/04/08 07:17:21;;;;;;;6.15;1.10;;;3.70;90.20;;;;;;3545913;40;20049;-80
2021/04/08 07:19:47;;;;;;;4.35;1.13;;;3.80;90.30;;;;;;3546138;40;20251;-76
2021/04/08 07:22:14;;;;;;;5.82;0.73;;;4.00;90.30;;;;;;3546859;40;20038;-76
2021/04/08 07:24:45;;;;;;;8.05;0.85;;;4.00;90.50;;;;;;3545584;40;20042;-76
2021/04/08 07:27:19;;;;;;;4.13;0.40;;;4.00;90.30;;;;;;3545914;40;20065;-75
2021/04/08 07:29:54;;;;;;;3.70;0.38;;;4.10;90.20;;;;;;3547474;40;20218;-76
2021/04/08 07:32:33;;;;;;;3.00;0.60;;;4.20;90.10;;;;;;3546481;40;20057;-76
2021/04/08 07:35:10;;;;;;;7.47;0.75;;;4.20;89.90;;;;;;3546778;40;20045;-76
2021/04/08 07:37:37;;;;;;;2.40;0.30;;;4.20;90.00;;;;;;3546816;40;20053;-76
2021/04/08 07:40:13;;;;;;;3.47;0.20;;;4.20;90.10;;;;;;3547059;40;20364;-78
2021/04/08 07:42:40;;;;;;;3.95;0.30;;;4.20;90.20;;;;;;3546753;40;20054;-79
2021/04/08 07:45:07;;;;;;;5.28;0.47;;;4.30;90.20;;;;;;3545548;40;20124;-76
2021/04/08 07:47:36;;;;;;;5.78;0.35;;;4.40;90.00;;;;;;3546401;40;20109;-76
2021/04/08 07:50:04;;;;;;;4.57;0.32;;;4.40;89.90;;;;;;3546881;40;20053;-75
2021/04/08 07:52:38;;;;;;;5.88;1.23;;;4.50;89.40;;;;;;3543660;40;20254;-75
2021/04/08 07:55:18;;;;;;;8.57;1.27;;;4.50;89.70;;;;;;3546887;40;20045;-75
2021/04/08 07:57:55;;;;;;;9.18;0.75;;;4.60;89.70;;;;;;3546853;40;20143;-76
2021/04/08 08:00:28;;;;;;;2.35;0.30;;;4.60;89.40;;;;;;3537775;40;20157;-75
2021/04/08 08:02:56;;;;;;;6.97;0.90;;;4.70;89.40;;;;;;3545750;40;20058;-75
2021/04/08 08:05:28;;;;;;;11.82;1.60;;;4.70;89.20;;;;;;3546271;40;20053;-76
2021/04/08 08:08:07;;;;;;;4.57;0.40;;;4.90;89.10;;;;;;3546682;40;20078;-75
2021/04/08 08:10:34;;;;;;;3.15;1.00;;;4.90;88.60;;;;;;3546529;40;20046;-76
2021/04/08 08:13:00;;;;;;;4.50;0.30;;;5.00;88.70;;;;;;3545744;40;20042;-75
2021/04/08 08:15:28;;;;;;;5.65;0.40;;;5.00;89.10;;;;;;3546587;40;20053;-75
2021/04/08 08:17:56;;;;;;;4.40;0.30;;;5.10;88.20;;;;;;3544817;40;20053;-75
2021/04/08 08:20:24;;;;;;;4.85;0.85;;;5.10;88.40;;;;;;3546170;40;20042;-75
2021/04/08 08:22:51;;;;;;;4.32;1.42;;;5.10;88.80;;;;;;3545529;40;20048;-75
2021/04/08 08:25:24;;;;;;;7.50;1.13;;;5.10;88.10;;;;;;3546809;40;20072;-76
2021/04/08 08:27:52;;;;;;;11.52;0.60;;;5.00;88.20;;;;;;3546506;40;20136;-76
2021/04/08 08:30:31;;;;;;;7.68;0.77;;;5.00;86.70;;;;;;3548766;40;20074;-77
2021/04/08 08:33:19;;;;;;;3.90;0.40;;;5.00;87.80;;;;;;3545553;40;20034;-76
2021/04/08 08:35:46;;;;;;;4.22;0.40;;;5.00;88.10;;;;;;3546166;40;20244;-76
2021/04/08 08:38:18;;;;;;;4.63;0.32;;;5.00;87.70;;;;;;3546382;40;20042;-76
2021/04/08 08:40:47;;;;;;;3.78;0.60;;;5.00;87.60;;;;;;3546213;40;20117;-77
2021/04/08 08:43:16;;;;;;;3.40;0.30;;;4.90;87.00;;;;;;3546407;40;20069;-76
2021/04/08 08:45:42;;;;;;;4.50;0.35;;;4.90;87.20;;;;;;3546144;40;20045;-78
2021/04/08 08:48:15;;;;;;;3.58;0.75;;;4.90;86.90;;;;;;3546324;40;20046;-77
2021/04/08 08:50:43;;;;;;;5.70;0.40;;;5.00;87.30;;;;;;3546016;40;20121;-77
2021/04/08 08:53:10;;;;;;;2.78;0.57;;;5.00;86.70;;;;;;3537561;40;20065;-78
2021/04/08 08:55:37;;;;;;;4.72;0.52;;;5.00;87.00;;;;;;3545838;40;20038;-76
2021/04/08 08:58:05;;;;;;;5.07;0.57;;;5.10;86.20;;;;;;3545103;40;20045;-76
2021/04/08 09:00:34;;;;;;;6.13;0.50;;;5.20;86.90;;;;;;3546123;40;20046;-80
2021/04/08 09:03:03;;;;;;;2.25;0.60;;;5.20;86.20;;;;;;3545595;40;20045;-76
2021/04/08 09:05:31;;;;;;;2.65;0.30;;;5.30;86.10;;;;;;3546340;40;20038;-80
2021/04/08 09:08:00;;;;;;;4.28;0.75;;;5.40;85.20;;;;;;3546674;40;20450;-77
2021/04/08 09:10:32;;;;;;;6.15;0.30;;;5.70;86.50;;;;;;3543058;40;20050;-76
2021/04/08 09:12:58;;;;;;;2.00;0.35;;;6.20;84.90;;;;;;3546289;40;20045;-77
2021/04/08 09:15:25;;;;;;;7.95;0.32;;;6.50;83.90;;;;;;3545178;40;20038;-77
2021/04/08 09:17:58;;;;;;;2.88;0.30;;;6.60;83.80;;;;;;3545471;40;20049;-79
2021/04/08 09:20:26;;;;;;;6.05;0.70;;;6.80;82.30;;;;;;3545235;40;20259;-78
2021/04/08 09:22:57;;;;;;;2.67;0.38;;;6.90;83.00;;;;;;3546298;40;20668;-77
2021/04/08 09:25:38;;;;;;;5.10;0.30;;;6.90;82.30;;;;;;3546019;40;20050;-78
2021/04/08 09:28:10;;;;;;;5.60;0.63;;;6.90;79.30;;;;;;3546142;40;20045;-76
2021/04/08 09:30:55;;;;;;;2.53;0.68;;;6.90;79.50;;;;;;3547013;40;20326;-77
2021/04/08 09:33:54;;;;;;;5.93;0.60;;;6.80;81.70;;;;;;3545989;40;20082;-76
2021/04/08 09:36:27;;;;;;;3.55;0.30;;;6.90;79.70;;;;;;3542914;40;20083;-76
2021/04/08 09:39:14;;;;;;;5.70;0.70;;;6.90;81.90;;;;;;3546255;40;20385;-76
2021/04/08 09:41:41;;;;;;;3.08;0.40;;;7.00;82.70;;;;;;3544867;40;20034;-76
2021/04/08 09:44:09;;;;;;;6.75;0.75;;;7.10;82.10;;;;;;3546126;40;20059;-76
2021/04/08 09:46:53;;;;;;;2.10;0.30;;;7.10;80.40;;;;;;3545674;40;20357;-79
2021/04/08 09:49:40;;;;;;;4.35;0.63;;;7.30;80.20;;;;;;3546121;40;20276;-82
2021/04/08 09:52:08;;;;;;;9.00;1.23;;;7.40;75.00;;;;;;3545061;40;20039;-80
2021/04/08 09:54:52;;;;;;;5.50;0.85;;;7.50;79.50;;;;;;3544571;40;20045;-80
2021/04/08 09:57:35;;;;;;;3.22;0.40;;;7.60;79.40;;;;;;3545016;40;20038;-79
2021/04/08 10:00:01;;;;;;;3.83;0.20;;;7.80;80.70;;;;;;3545920;40;20042;-80
2021/04/08 10:02:32;;;;;;;8.15;0.60;;;8.00;79.80;;;;;;3545712;40;20061;-80
2021/04/08 10:05:07;;;;;;;4.72;0.40;;;8.00;78.40;;;;;;3546078;40;20148;-80
2021/04/08 10:07:53;;;;;;;8.77;0.50;;;8.00;77.70;;;;;;3545503;40;20046;-79
2021/04/08 10:10:36;;;;;;;2.65;0.43;;;8.10;73.10;;;;;;3547303;40;20049;-81
2021/04/08 10:13:27;;;;;;;3.78;0.30;;;8.10;77.50;;;;;;3546654;40;20078;-76
2021/04/08 10:15:55;;;;;;;4.97;0.45;;;8.20;71.90;;;;;;3546643;40;20097;-76
2021/04/08 10:18:27;;;;;;;8.15;0.40;;;8.30;74.90;;;;;;3546617;40;20042;-76
2021/04/08 10:21:16;;;;;;;6.68;0.43;;;8.40;76.00;;;;;;3539895;40;20124;-80
2021/04/08 10:24:12;;;;;;;3.40;0.40;;;8.40;75.50;;;;;;3546586;40;20071;-78
2021/04/08 10:26:58;;;;;;;2.92;0.40;;;8.40;74.30;;;;;;3537818;40;20105;-77
2021/04/08 10:29:45;;;;;;;2.85;0.30;;;8.30;74.00;;;;;;3548714;40;20031;-77
2021/04/08 10:32:11;;;;;;;7.72;0.60;;;8.30;76.20;;;;;;3546739;40;20046;-77
2021/04/08 10:34:39;;;;;;;5.53;0.75;;;8.20;75.10;;;;;;3537933;40;20036;-76
2021/04/08 10:37:07;;;;;;;5.97;0.40;;;8.20;75.40;;;;;;3547324;40;20038;-77
2021/04/08 10:39:35;;;;;;;7.45;2.08;;;8.10;75.10;;;;;;3546012;40;20042;-76
2021/04/08 10:42:10;;;;;;;5.75;1.40;;;8.10;76.30;;;;;;3545704;40;20050;-77
2021/04/08 10:44:49;;;;;;;4.75;1.00;;;8.10;74.70;;;;;;3546971;40;20049;-77
2021/04/08 10:47:23;;;;;;;5.03;0.80;;;8.10;71.50;;;;;;3547085;40;20049;-81
2021/04/08 10:49:51;;;;;;;6.80;0.75;;;8.00;74.40;;;;;;3547100;40;20128;-78
2021/04/08 10:52:22;;;;;;;4.32;1.38;;;7.80;74.10;;;;;;3547217;40;20108;-76
2021/04/08 10:55:04;;;;;;;4.35;0.47;;;7.70;74.10;;;;;;3547113;40;20034;-77
2021/04/08 10:57:31;;;;;;;7.15;1.10;;;7.50;72.10;;;;;;3546643;40;20050;-77
2021/04/08 10:59:57;;;;;;;4.28;0.80;;;7.40;76.30;;;;;;3547084;40;20042;-77
2021/04/08 11:02:45;;;;;;;2.83;0.90;;;7.30;74.50;;;;;;3545904;40;20043;-76
2021/04/08 11:05:25;;;;;;;7.15;1.15;;;7.20;72.80;;;;;;3546870;40;20031;-76
2021/04/08 11:07:55;;;;;;;7.10;1.20;;;7.10;74.30;;;;;;3547004;40;20042;-76
2021/04/08 11:10:32;;;;;;;6.85;1.65;;;7.10;76.10;;;;;;3546599;40;20034;-77
2021/04/08 11:12:59;;;;;;;3.53;0.70;;;7.20;74.50;;;;;;3546973;40;20128;-76
2021/04/08 11:15:28;;;;;;;4.05;0.77;;;7.20;76.50;;;;;;3546884;40;20458;-77
2021/04/08 11:17:59;;;;;;;4.93;0.75;;;7.40;71.10;;;;;;3546983;40;20188;-78
2021/04/08 11:20:37;;;;;;;3.75;1.02;;;7.60;73.10;;;;;;3545393;40;20035;-77
2021/04/08 11:23:05;;;;;;;4.45;1.27;;;7.80;70.00;;;;;;3546892;40;20249;-77
2021/04/08 11:25:31;;;;;;;3.58;1.10;;;7.80;72.20;;;;;;3545731;40;20034;-77
2021/04/08 11:27:59;;;;;;;2.15;1.25;;;7.90;70.90;;;;;;3546840;40;20046;-77
2021/04/08 11:30:34;;;;;;;3.10;0.80;;;7.90;69.30;;;;;;3548716;40;20042;-79
2021/04/08 11:33:00;;;;;;;4.53;1.45;;;7.90;66.40;;;;;;3547093;40;20113;-76
2021/04/08 11:35:36;;;;;;;4.05;1.33;;;7.90;69.80;;;;;;3545586;40;20074;-77
2021/04/08 11:38:14;;;;;;;3.28;1.58;;;8.10;68.10;;;;;;3546039;40;20050;-77
2021/04/08 11:41:05;;;;;;;3.65;1.60;;;8.20;64.80;;;;;;3545901;40;20061;-77
2021/04/08 11:43:32;;;;;;;1.60;1.00;;;8.20;68.20;;;;;;3546692;40;20049;-78
2021/04/08 11:46:04;;;;;;;2.80;1.08;;;8.20;66.60;;;;;;3545976;40;20329;-78
2021/04/08 11:48:44;;;;;;;5.25;1.73;;;8.20;66.80;;;;;;3546333;40;20136;-77
2021/04/08 11:51:10;;;;;;;3.00;1.58;;;8.10;66.20;;;;;;3543841;40;20079;-77
2021/04/08 11:53:43;;;;;;;6.90;1.92;;;8.20;68.60;;;;;;3546350;40;20136;-78
2021/04/08 11:56:28;;;;;;;4.75;1.85;;;8.40;66.80;;;;;;3543801;40;20339;-79
2021/04/08 11:59:23;;;;;;;2.28;1.52;;;8.70;62.80;;;;;;3546514;40;20041;-80
2021/04/08 12:01:50;;;;;;;4.90;1.80;;;8.90;61.90;;;;;;3546753;40;20050;-79
2021/04/08 12:04:23;;;;;;;5.65;3.05;;;9.00;64.70;;;;;;3545595;40;20050;-78
2021/04/08 12:06:55;;;;;;;4.75;1.98;;;9.00;65.10;;;;;;3546671;40;20046;-78
2021/04/08 12:09:35;;;;;;;3.53;1.77;;;8.90;65.10;;;;;;3545729;40;20034;-81
2021/04/08 12:12:01;;;;;;;3.00;2.58;;;8.80;61.90;;;;;;3546657;40;20042;-78
2021/04/08 12:14:27;;;;;;;3.38;1.80;;;8.80;65.80;;;;;;3546188;40;20083;-78
2021/04/08 12:17:11;;;;;;;4.13;2.03;;;8.80;64.50;;;;;;3545605;40;20064;-78
2021/04/08 12:19:37;;;;;;;5.40;2.85;;;8.80;56.50;;;;;;3546198;40;20042;-78
2021/04/08 12:22:10;;;;;;;4.72;2.40;;;8.70;63.70;;;;;;3539837;40;20050;-77
2021/04/08 12:24:40;;;;;;;5.20;2.40;;;8.70;63.80;;;;;;3544146;40;20042;-78
2021/04/08 12:27:19;;;;;;;4.63;2.20;;;8.80;64.60;;;;;;3543821;40;20053;-79
2021/04/08 12:29:45;;;;;;;4.88;2.15;;;9.00;62.60;;;;;;3537075;40;20054;-77
2021/04/08 12:32:11;;;;;;;3.03;2.13;;;9.10;64.60;;;;;;3543447;40;20042;-78
2021/04/08 12:34:37;;;;;;;3.90;3.45;;;9.10;62.10;;;;;;3543903;40;20045;-78
2021/04/08 12:37:03;;;;;;;5.82;3.40;;;9.00;65.70;;;;;;3545443;40;20136;-78
2021/04/08 12:39:29;;;;;;;10.38;3.95;;;9.00;66.90;;;;;;3544686;40;20041;-79
2021/04/08 12:41:55;;;;;;;9.13;3.83;;;9.00;65.70;;;;;;3544067;40;20097;-79
2021/04/08 12:44:21;;;;;;;3.63;3.30;;;9.00;65.10;;;;;;3543675;40;20038;-79
2021/04/08 12:46:49;;;;;;;5.07;4.07;;;8.90;64.60;;;;;;3544300;40;20069;-78
2021/04/08 12:49:15;;;;;;;5.55;4.25;;;9.10;66.40;;;;;;3545293;40;20642;-79
2021/04/08 12:51:40;;;;;;;5.30;3.72;;;9.10;64.50;;;;;;3544425;40;20073;-79
2021/04/08 12:54:06;;;;;;;6.75;4.10;;;9.30;65.00;;;;;;3544856;40;20050;-81
2021/04/08 12:56:32;;;;;;;5.60;4.70;;;9.40;64.70;;;;;;3543817;40;20062;-79
2021/04/08 12:59:00;;;;;;;5.35;3.97;;;9.60;61.70;;;;;;3544891;40;20404;-79
2021/04/08 13:01:27;;;;;;;6.22;4.22;;;9.70;61.40;;;;;;3544583;40;20045;-78
2021/04/08 13:03:53;;;;;;;8.48;5.10;;;9.80;64.00;;;;;;3543905;40;20122;-78
2021/04/08 13:06:19;;;;;;;5.43;4.32;;;9.90;61.40;;;;;;3543649;40;20046;-80
2021/04/08 13:08:44;;;;;;;8.63;5.82;;;9.80;60.90;;;;;;3544538;40;20042;-79